sensor_id;sensor_type;location;lat;lon;timestamp;pressure;altitude;pressure_sealevel;temperature;humidity
75425;BME280;64007;50.632;13.700;2023-02-26T00:01:13;97236.38;;;-0.71;98.13
75425;BME280;64007;50.632;13.700;2023-02-26T00:03:39;97247.44;;;-0.85;99.18
75425;BME280;64007;50.632;13.700;2023-02-26T00:06:06;97243.22;;;-0.87;100.00
75425;BME280;64007;50.632;13.700;2023-02-26T00:08:32;97252.53;;;-0.82;100.00
75425;BME280;64007;50.632;13.700;2023-02-26T00:10:58;97243.78;;;-0.81;100.00
75425;BME280;64007;50.632;13.700;2023-02-26T00:13:27;97249.84;;;-0.80;100.00
75425;BME280;64007;50.632;13.700;2023-02-26T00:15:58;97244.06;;;-0.87;94.63
75425;BME280;64007;50.632;13.700;2023-02-26T00:18:24;97242.53;;;-0.91;99.07
75425;BME280;64007;50.632;13.700;2023-02-26T00:20:50;97251.13;;;-0.89;100.00
75425;BME280;64007;50.632;13.700;2023-02-26T00:23:16;97258.19;;;-0.91;100.00
75425;BME280;64007;50.632;13.700;2023-02-26T00:25:43;97253.44;;;-0.83;100.00
75425;BME280;64007;50.632;13.700;2023-02-26T00:28:09;97252.13;;;-0.91;100.00
75425;BME280;64007;50.632;13.700;2023-02-26T00:30:36;97256.28;;;-0.87;100.00
75425;BME280;64007;50.632;13.700;2023-02-26T00:33:02;97262.00;;;-0.98;97.85
75425;BME280;64007;50.632;13.700;2023-02-26T00:35:28;97262.50;;;-0.90;96.09
75425;BME280;64007;50.632;13.700;2023-02-26T00:37:58;97258.69;;;-1.02;98.83
75425;BME280;64007;50.632;13.700;2023-02-26T00:40:42;97264.00;;;-1.03;100.00
75425;BME280;64007;50.632;13.700;2023-02-26T00:43:20;97265.97;;;-1.08;100.00
75425;BME280;64007;50.632;13.700;2023-02-26T00:48:36;97261.47;;;-1.05;100.00
75425;BME280;64007;50.632;13.700;2023-02-26T00:51:23;97271.19;;;-1.08;100.00
75425;BME280;64007;50.632;13.700;2023-02-26T00:56:39;97253.00;;;-1.10;99.73
75425;BME280;64007;50.632;13.700;2023-02-26T00:59:05;97264.63;;;-1.17;100.00
75425;BME280;64007;50.632;13.700;2023-02-26T01:01:31;97272.59;;;-1.20;98.15
75425;BME280;64007;50.632;13.700;2023-02-26T01:03:56;97273.31;;;-1.16;95.46
75425;BME280;64007;50.632;13.700;2023-02-26T01:06:27;97284.00;;;-1.22;98.77
75425;BME280;64007;50.632;13.700;2023-02-26T01:11:34;97283.59;;;-1.13;98.58
75425;BME280;64007;50.632;13.700;2023-02-26T01:14:00;97281.97;;;-1.16;97.88
75425;BME280;64007;50.632;13.700;2023-02-26T01:16:27;97286.34;;;-1.16;95.22
75425;BME280;64007;50.632;13.700;2023-02-26T01:24:42;97288.25;;;-1.20;98.41
75425;BME280;64007;50.632;13.700;2023-02-26T01:27:09;97285.69;;;-1.21;98.52
75425;BME280;64007;50.632;13.700;2023-02-26T01:29:34;97290.28;;;-1.27;100.00
75425;BME280;64007;50.632;13.700;2023-02-26T01:39:44;97284.28;;;-1.29;100.00
75425;BME280;64007;50.632;13.700;2023-02-26T01:42:18;97297.09;;;-1.24;100.00
75425;BME280;64007;50.632;13.700;2023-02-26T01:47:42;97294.03;;;-1.13;93.78
75425;BME280;64007;50.632;13.700;2023-02-26T01:50:15;97300.16;;;-1.14;96.12
75425;BME280;64007;50.632;13.700;2023-02-26T01:55:14;97301.22;;;-1.18;98.74
75425;BME280;64007;50.632;13.700;2023-02-26T01:57:41;97303.94;;;-1.21;100.00
75425;BME280;64007;50.632;13.700;2023-02-26T02:00:07;97316.75;;;-1.15;95.58
75425;BME280;64007;50.632;13.700;2023-02-26T02:02:33;97304.63;;;-1.16;100.00
75425;BME280;64007;50.632;13.700;2023-02-26T02:05:05;97309.81;;;-1.16;100.00
75425;BME280;64007;50.632;13.700;2023-02-26T02:07:31;97319.97;;;-1.10;100.00
75425;BME280;64007;50.632;13.700;2023-02-26T02:09:57;97313.34;;;-1.17;100.00
75425;BME280;64007;50.632;13.700;2023-02-26T02:15:14;97306.53;;;-1.20;100.00
75425;BME280;64007;50.632;13.700;2023-02-26T02:23:16;97320.66;;;-1.26;100.00
75425;BME280;64007;50.632;13.700;2023-02-26T02:32:42;97328.53;;;-1.27;100.00
75425;BME280;64007;50.632;13.700;2023-02-26T02:35:06;97330.84;;;-1.19;100.00
75425;BME280;64007;50.632;13.700;2023-02-26T02:37:38;97324.88;;;-1.23;100.00
75425;BME280;64007;50.632;13.700;2023-02-26T02:40:10;97336.94;;;-1.20;100.00
75425;BME280;64007;50.632;13.700;2023-02-26T02:42:52;97350.13;;;-1.23;100.00
75425;BME280;64007;50.632;13.700;2023-02-26T02:45:46;97346.50;;;-1.19;100.00
75425;BME280;64007;50.632;13.700;2023-02-26T02:48:57;97353.25;;;-1.15;100.00
75425;BME280;64007;50.632;13.700;2023-02-26T02:51:34;97353.53;;;-0.84;98.84
75425;BME280;64007;50.632;13.700;2023-02-26T02:54:07;97358.59;;;-0.81;100.00
75425;BME280;64007;50.632;13.700;2023-02-26T02:56:42;97361.88;;;-0.76;100.00
75425;BME280;64007;50.632;13.700;2023-02-26T02:59:17;97372.72;;;-0.85;100.00
75425;BME280;64007;50.632;13.700;2023-02-26T03:01:47;97380.69;;;-0.88;100.00
75425;BME280;64007;50.632;13.700;2023-02-26T03:04:15;97374.94;;;-0.76;100.00
75425;BME280;64007;50.632;13.700;2023-02-26T03:06:42;97380.06;;;-0.93;100.00
75425;BME280;64007;50.632;13.700;2023-02-26T03:09:09;97386.19;;;-0.94;100.00
75425;BME280;64007;50.632;13.700;2023-02-26T03:11:36;97394.16;;;-0.97;100.00
75425;BME280;64007;50.632;13.700;2023-02-26T03:14:02;97406.00;;;-0.90;100.00
75425;BME280;64007;50.632;13.700;2023-02-26T03:16:51;97411.63;;;-0.79;100.00
75425;BME280;64007;50.632;13.700;2023-02-26T03:22:35;97417.75;;;-0.80;100.00
75425;BME280;64007;50.632;13.700;2023-02-26T03:25:08;97429.75;;;-0.76;100.00
75425;BME280;64007;50.632;13.700;2023-02-26T03:33:10;97435.09;;;-0.41;100.00
75425;BME280;64007;50.632;13.700;2023-02-26T03:38:29;97443.09;;;-0.63;100.00
75425;BME280;64007;50.632;13.700;2023-02-26T03:41:02;97454.59;;;-0.67;100.00
75425;BME280;64007;50.632;13.700;2023-02-26T03:43:35;97461.56;;;-0.68;100.00
75425;BME280;64007;50.632;13.700;2023-02-26T03:46:06;97452.47;;;-0.78;100.00
75425;BME280;64007;50.632;13.700;2023-02-26T03:48:35;97460.78;;;-0.70;100.00
75425;BME280;64007;50.632;13.700;2023-02-26T03:51:06;97459.91;;;-0.89;100.00
75425;BME280;64007;50.632;13.700;2023-02-26T03:53:34;97459.63;;;-0.83;100.00
75425;BME280;64007;50.632;13.700;2023-02-26T03:58:44;97484.16;;;-0.87;100.00
75425;BME280;64007;50.632;13.700;2023-02-26T04:01:15;97478.81;;;-0.84;100.00
75425;BME280;64007;50.632;13.700;2023-02-26T04:03:57;97484.31;;;-0.90;100.00
75425;BME280;64007;50.632;13.700;2023-02-26T04:06:25;97499.03;;;-0.89;100.00
75425;BME280;64007;50.632;13.700;2023-02-26T04:08:52;97505.59;;;-0.99;100.00
75425;BME280;64007;50.632;13.700;2023-02-26T04:11:20;97507.28;;;-0.98;100.00
75425;BME280;64007;50.632;13.700;2023-02-26T04:13:46;97508.19;;;-0.99;100.00
75425;BME280;64007;50.632;13.700;2023-02-26T04:16:12;97505.00;;;-1.06;100.00
75425;BME280;64007;50.632;13.700;2023-02-26T04:18:39;97501.94;;;-1.15;100.00
75425;BME280;64007;50.632;13.700;2023-02-26T04:21:06;97511.53;;;-1.16;100.00
75425;BME280;64007;50.632;13.700;2023-02-26T04:23:32;97509.91;;;-1.18;100.00
75425;BME280;64007;50.632;13.700;2023-02-26T04:25:57;97507.34;;;-1.20;100.00
75425;BME280;64007;50.632;13.700;2023-02-26T04:28:23;97511.69;;;-1.20;100.00
75425;BME280;64007;50.632;13.700;2023-02-26T04:30:49;97508.31;;;-1.22;96.83
75425;BME280;64007;50.632;13.700;2023-02-26T04:33:14;97514.06;;;-1.14;100.00
75425;BME280;64007;50.632;13.700;2023-02-26T04:35:40;97512.25;;;-1.12;99.37
75425;BME280;64007;50.632;13.700;2023-02-26T04:38:06;97512.50;;;-1.18;98.27
75425;BME280;64007;50.632;13.700;2023-02-26T04:40:32;97508.19;;;-1.19;100.00
75425;BME280;64007;50.632;13.700;2023-02-26T04:42:58;97519.47;;;-1.19;100.00
75425;BME280;64007;50.632;13.700;2023-02-26T04:45:24;97522.53;;;-1.09;98.73
75425;BME280;64007;50.632;13.700;2023-02-26T04:47:50;97524.31;;;-1.10;94.76
75425;BME280;64007;50.632;13.700;2023-02-26T04:50:16;97527.13;;;-1.14;96.72
75425;BME280;64007;50.632;13.700;2023-02-26T04:52:42;97531.53;;;-1.16;100.00
75425;BME280;64007;50.632;13.700;2023-02-26T04:55:07;97525.34;;;-1.14;100.00
75425;BME280;64007;50.632;13.700;2023-02-26T04:57:33;97536.91;;;-1.19;100.00
75425;BME280;64007;50.632;13.700;2023-02-26T04:59:59;97536.16;;;-1.23;100.00
75425;BME280;64007;50.632;13.700;2023-02-26T05:02:25;97548.22;;;-1.20;100.00
75425;BME280;64007;50.632;13.700;2023-02-26T05:04:50;97547.34;;;-1.21;100.00
75425;BME280;64007;50.632;13.700;2023-02-26T05:07:16;97554.72;;;-1.31;100.00
75425;BME280;64007;50.632;13.700;2023-02-26T05:09:42;97548.34;;;-1.23;100.00
75425;BME280;64007;50.632;13.700;2023-02-26T05:12:08;97554.97;;;-1.15;100.00
75425;BME280;64007;50.632;13.700;2023-02-26T05:14:33;97559.13;;;-1.11;99.88
75425;BME280;64007;50.632;13.700;2023-02-26T05:16:59;97549.94;;;-1.19;97.92
75425;BME280;64007;50.632;13.700;2023-02-26T05:19:25;97543.25;;;-1.27;98.27
75425;BME280;64007;50.632;13.700;2023-02-26T05:21:51;97552.78;;;-1.26;97.74
75425;BME280;64007;50.632;13.700;2023-02-26T05:24:16;97566.66;;;-1.25;98.02
75425;BME280;64007;50.632;13.700;2023-02-26T05:26:42;97581.91;;;-1.14;100.00
75425;BME280;64007;50.632;13.700;2023-02-26T05:29:08;97579.75;;;-1.27;100.00
75425;BME280;64007;50.632;13.700;2023-02-26T05:31:34;97582.56;;;-1.31;100.00
75425;BME280;64007;50.632;13.700;2023-02-26T05:33:59;97590.03;;;-1.44;100.00
75425;BME280;64007;50.632;13.700;2023-02-26T05:36:25;97596.03;;;-1.42;100.00
75425;BME280;64007;50.632;13.700;2023-02-26T05:38:51;97610.09;;;-1.46;100.00
75425;BME280;64007;50.632;13.700;2023-02-26T05:41:18;97599.31;;;-1.37;96.00
75425;BME280;64007;50.632;13.700;2023-02-26T05:43:44;97610.72;;;-1.39;98.39
75425;BME280;64007;50.632;13.700;2023-02-26T05:46:10;97621.63;;;-1.30;90.06
75425;BME280;64007;50.632;13.700;2023-02-26T05:48:35;97613.00;;;-1.32;91.63
75425;BME280;64007;50.632;13.700;2023-02-26T05:51:01;97620.84;;;-1.32;95.28
75425;BME280;64007;50.632;13.700;2023-02-26T05:53:30;97619.00;;;-1.30;86.74
75425;BME280;64007;50.632;13.700;2023-02-26T05:55:56;97617.00;;;-1.23;83.88
75425;BME280;64007;50.632;13.700;2023-02-26T05:58:21;97623.06;;;-1.22;87.64
75425;BME280;64007;50.632;13.700;2023-02-26T06:00:47;97628.41;;;-1.26;84.22
75425;BME280;64007;50.632;13.700;2023-02-26T06:03:16;97630.34;;;-1.31;86.53
75425;BME280;64007;50.632;13.700;2023-02-26T06:05:42;97641.56;;;-1.29;83.89
75425;BME280;64007;50.632;13.700;2023-02-26T06:08:07;97648.06;;;-1.39;85.78
75425;BME280;64007;50.632;13.700;2023-02-26T06:10:33;97652.44;;;-1.39;85.85
75425;BME280;64007;50.632;13.700;2023-02-26T06:12:59;97658.38;;;-1.36;89.39
75425;BME280;64007;50.632;13.700;2023-02-26T06:15:25;97666.75;;;-1.28;91.97
75425;BME280;64007;50.632;13.700;2023-02-26T06:17:51;97675.59;;;-1.32;96.65
75425;BME280;64007;50.632;13.700;2023-02-26T06:20:16;97673.66;;;-1.27;97.16
75425;BME280;64007;50.632;13.700;2023-02-26T06:22:42;97678.75;;;-1.23;88.57
75425;BME280;64007;50.632;13.700;2023-02-26T06:25:08;97694.53;;;-1.27;97.81
75425;BME280;64007;50.632;13.700;2023-02-26T06:27:34;97694.28;;;-1.20;95.04
75425;BME280;64007;50.632;13.700;2023-02-26T06:30:00;97685.47;;;-1.16;89.16
75425;BME280;64007;50.632;13.700;2023-02-26T06:32:25;97691.53;;;-1.16;88.02
75425;BME280;64007;50.632;13.700;2023-02-26T06:34:51;97702.31;;;-1.03;92.48
75425;BME280;64007;50.632;13.700;2023-02-26T06:37:16;97697.09;;;-1.03;92.19
75425;BME280;64007;50.632;13.700;2023-02-26T06:39:42;97693.56;;;-1.02;94.66
75425;BME280;64007;50.632;13.700;2023-02-26T06:42:08;97704.25;;;-1.08;99.31
75425;BME280;64007;50.632;13.700;2023-02-26T06:44:33;97717.38;;;-1.10;98.89
75425;BME280;64007;50.632;13.700;2023-02-26T06:46:59;97717.44;;;-1.11;97.54
75425;BME280;64007;50.632;13.700;2023-02-26T06:49:25;97721.00;;;-1.14;100.00
75425;BME280;64007;50.632;13.700;2023-02-26T06:51:50;97736.34;;;-1.06;100.00
75425;BME280;64007;50.632;13.700;2023-02-26T06:54:16;97742.13;;;-0.98;100.00
75425;BME280;64007;50.632;13.700;2023-02-26T06:56:42;97748.91;;;-0.94;96.93
75425;BME280;64007;50.632;13.700;2023-02-26T06:59:07;97738.81;;;-0.80;93.57
75425;BME280;64007;50.632;13.700;2023-02-26T07:01:33;97741.16;;;-0.74;91.33
75425;BME280;64007;50.632;13.700;2023-02-26T07:03:59;97750.03;;;-0.78;92.74
75425;BME280;64007;50.632;13.700;2023-02-26T07:06:25;97748.09;;;-0.73;93.37
75425;BME280;64007;50.632;13.700;2023-02-26T07:08:51;97752.63;;;-0.78;90.60
75425;BME280;64007;50.632;13.700;2023-02-26T07:11:16;97768.13;;;-0.73;92.87
75425;BME280;64007;50.632;13.700;2023-02-26T07:13:42;97765.56;;;-0.75;90.23
75425;BME280;64007;50.632;13.700;2023-02-26T07:16:08;97776.00;;;-0.75;88.83
75425;BME280;64007;50.632;13.700;2023-02-26T07:18:35;97775.50;;;-0.63;88.04
75425;BME280;64007;50.632;13.700;2023-02-26T07:21:03;97774.41;;;-0.57;94.68
75425;BME280;64007;50.632;13.700;2023-02-26T07:23:29;97779.38;;;-0.51;94.30
75425;BME280;64007;50.632;13.700;2023-02-26T07:25:54;97779.75;;;-0.38;89.53
75425;BME280;64007;50.632;13.700;2023-02-26T07:28:22;97789.56;;;-0.45;89.38
75425;BME280;64007;50.632;13.700;2023-02-26T07:30:47;97772.34;;;-0.49;91.63
75425;BME280;64007;50.632;13.700;2023-02-26T07:33:13;97773.97;;;-0.46;88.17
75425;BME280;64007;50.632;13.700;2023-02-26T07:35:39;97778.41;;;-0.48;88.87
75425;BME280;64007;50.632;13.700;2023-02-26T07:38:05;97785.78;;;-0.36;93.73
75425;BME280;64007;50.632;13.700;2023-02-26T07:40:31;97795.31;;;-0.35;88.61
75425;BME280;64007;50.632;13.700;2023-02-26T07:42:57;97798.31;;;-0.24;86.70
75425;BME280;64007;50.632;13.700;2023-02-26T07:45:22;97802.09;;;-0.31;82.24
75425;BME280;64007;50.632;13.700;2023-02-26T07:47:50;97816.41;;;-0.41;83.91
75425;BME280;64007;50.632;13.700;2023-02-26T07:50:16;97818.50;;;-0.49;84.88
75425;BME280;64007;50.632;13.700;2023-02-26T07:52:41;97814.84;;;-0.45;85.69
75425;BME280;64007;50.632;13.700;2023-02-26T07:55:08;97828.69;;;-0.43;88.78
75425;BME280;64007;50.632;13.700;2023-02-26T07:57:34;97826.78;;;-0.38;88.13
75425;BME280;64007;50.632;13.700;2023-02-26T08:00:00;97830.06;;;-0.33;81.64
75425;BME280;64007;50.632;13.700;2023-02-26T08:02:26;97827.31;;;-0.30;83.76
75425;BME280;64007;50.632;13.700;2023-02-26T08:04:52;97829.25;;;-0.35;79.61
75425;BME280;64007;50.632;13.700;2023-02-26T08:07:18;97846.56;;;-0.33;80.26
75425;BME280;64007;50.632;13.700;2023-02-26T08:09:44;97842.38;;;-0.37;80.65
75425;BME280;64007;50.632;13.700;2023-02-26T08:12:10;97837.44;;;-0.44;80.00
75425;BME280;64007;50.632;13.700;2023-02-26T08:14:37;97843.50;;;-0.44;79.68
75425;BME280;64007;50.632;13.700;2023-02-26T08:17:07;97854.41;;;-0.33;78.24
75425;BME280;64007;50.632;13.700;2023-02-26T08:19:34;97842.44;;;-0.38;78.39
75425;BME280;64007;50.632;13.700;2023-02-26T08:22:00;97841.81;;;-0.23;77.83
75425;BME280;64007;50.632;13.700;2023-02-26T08:24:26;97852.16;;;-0.20;76.21
75425;BME280;64007;50.632;13.700;2023-02-26T08:26:51;97855.41;;;-0.15;78.28
75425;BME280;64007;50.632;13.700;2023-02-26T08:29:26;97854.19;;;-0.06;76.97
75425;BME280;64007;50.632;13.700;2023-02-26T08:31:58;97879.34;;;-0.04;75.61
75425;BME280;64007;50.632;13.700;2023-02-26T08:34:24;97860.38;;;-0.09;78.66
75425;BME280;64007;50.632;13.700;2023-02-26T08:36:50;97871.81;;;-0.11;81.00
75425;BME280;64007;50.632;13.700;2023-02-26T08:39:16;97867.56;;;-0.14;83.02
75425;BME280;64007;50.632;13.700;2023-02-26T08:41:42;97881.56;;;-0.15;82.28
75425;BME280;64007;50.632;13.700;2023-02-26T08:44:07;97876.06;;;-0.09;81.42
75425;BME280;64007;50.632;13.700;2023-02-26T08:46:33;97879.59;;;-0.10;82.49
75425;BME280;64007;50.632;13.700;2023-02-26T08:48:59;97887.06;;;-0.01;84.90
75425;BME280;64007;50.632;13.700;2023-02-26T08:51:25;97891.63;;;-0.06;86.93
75425;BME280;64007;50.632;13.700;2023-02-26T08:53:50;97893.31;;;-0.05;83.20
75425;BME280;64007;50.632;13.700;2023-02-26T08:56:16;97893.75;;;0.07;81.01
75425;BME280;64007;50.632;13.700;2023-02-26T08:58:42;97902.31;;;0.10;81.65
75425;BME280;64007;50.632;13.700;2023-02-26T09:01:08;97905.00;;;0.09;81.10
75425;BME280;64007;50.632;13.700;2023-02-26T09:03:34;97911.69;;;0.16;79.13
75425;BME280;64007;50.632;13.700;2023-02-26T09:06:00;97903.13;;;0.12;77.18
75425;BME280;64007;50.632;13.700;2023-02-26T09:08:26;97906.59;;;0.13;76.96
75425;BME280;64007;50.632;13.700;2023-02-26T09:10:52;97919.00;;;0.08;76.35
75425;BME280;64007;50.632;13.700;2023-02-26T09:13:17;97908.41;;;0.11;77.38
75425;BME280;64007;50.632;13.700;2023-02-26T09:15:44;97913.13;;;0.23;75.80
75425;BME280;64007;50.632;13.700;2023-02-26T09:18:09;97913.72;;;0.29;76.03
75425;BME280;64007;50.632;13.700;2023-02-26T09:20:42;97927.84;;;0.25;74.34
75425;BME280;64007;50.632;13.700;2023-02-26T09:23:07;97941.69;;;0.27;74.83
75425;BME280;64007;50.632;13.700;2023-02-26T09:25:33;97954.03;;;0.24;77.85
75425;BME280;64007;50.632;13.700;2023-02-26T09:27:59;97957.03;;;0.15;78.46
75425;BME280;64007;50.632;13.700;2023-02-26T09:30:24;97971.88;;;0.14;78.49
75425;BME280;64007;50.632;13.700;2023-02-26T09:32:50;97975.28;;;0.16;84.90
75425;BME280;64007;50.632;13.700;2023-02-26T09:35:16;97985.84;;;0.35;87.14
75425;BME280;64007;50.632;13.700;2023-02-26T09:37:41;97979.28;;;0.25;94.05
75425;BME280;64007;50.632;13.700;2023-02-26T09:40:14;97988.41;;;0.15;100.00
75425;BME280;64007;50.632;13.700;2023-02-26T09:42:55;97982.56;;;0.08;100.00
75425;BME280;64007;50.632;13.700;2023-02-26T09:45:32;97982.69;;;0.27;100.00
75425;BME280;64007;50.632;13.700;2023-02-26T09:48:02;97979.78;;;0.13;100.00
75425;BME280;64007;50.632;13.700;2023-02-26T09:50:43;97978.69;;;0.18;100.00
75425;BME280;64007;50.632;13.700;2023-02-26T09:53:20;97978.91;;;0.34;97.01
75425;BME280;64007;50.632;13.700;2023-02-26T09:55:49;97975.03;;;0.44;94.97
75425;BME280;64007;50.632;13.700;2023-02-26T10:06:37;98004.06;;;0.58;100.00
75425;BME280;64007;50.632;13.700;2023-02-26T10:09:25;97995.44;;;0.56;87.81
75425;BME280;64007;50.632;13.700;2023-02-26T10:11:59;97992.94;;;0.53;89.59
75425;BME280;64007;50.632;13.700;2023-02-26T10:17:28;98004.47;;;0.70;83.96
75425;BME280;64007;50.632;13.700;2023-02-26T10:20:00;97995.66;;;0.72;83.44
75425;BME280;64007;50.632;13.700;2023-02-26T10:22:39;97998.47;;;0.68;82.57
75425;BME280;64007;50.632;13.700;2023-02-26T10:25:16;98015.47;;;0.57;85.10
75425;BME280;64007;50.632;13.700;2023-02-26T10:27:57;98010.88;;;0.62;80.75
75425;BME280;64007;50.632;13.700;2023-02-26T10:30:27;98018.47;;;0.69;83.58
75425;BME280;64007;50.632;13.700;2023-02-26T10:35:48;98010.00;;;0.84;85.85
75425;BME280;64007;50.632;13.700;2023-02-26T10:38:21;98008.97;;;0.88;81.88
75425;BME280;64007;50.632;13.700;2023-02-26T10:43:27;98013.91;;;0.74;77.93
75425;BME280;64007;50.632;13.700;2023-02-26T10:46:31;98017.94;;;0.60;77.74
75425;BME280;64007;50.632;13.700;2023-02-26T10:51:38;98031.31;;;0.75;79.24
75425;BME280;64007;50.632;13.700;2023-02-26T10:54:14;98038.09;;;0.79;77.26
75425;BME280;64007;50.632;13.700;2023-02-26T10:56:41;98054.31;;;0.88;77.66
75425;BME280;64007;50.632;13.700;2023-02-26T10:59:07;98041.53;;;0.81;76.08
75425;BME280;64007;50.632;13.700;2023-02-26T11:01:33;98051.63;;;0.90;77.67
75425;BME280;64007;50.632;13.700;2023-02-26T11:04:02;98055.50;;;0.80;74.50
75425;BME280;64007;50.632;13.700;2023-02-26T11:06:39;98059.03;;;0.79;74.19
75425;BME280;64007;50.632;13.700;2023-02-26T11:09:18;98066.59;;;0.86;77.85
75425;BME280;64007;50.632;13.700;2023-02-26T11:12:00;98063.94;;;0.88;76.98
75425;BME280;64007;50.632;13.700;2023-02-26T11:14:30;98064.59;;;0.93;76.62
75425;BME280;64007;50.632;13.700;2023-02-26T11:17:00;98069.75;;;0.94;76.42
75425;BME280;64007;50.632;13.700;2023-02-26T11:19:41;98076.81;;;0.92;77.31
75425;BME280;64007;50.632;13.700;2023-02-26T11:22:14;98071.25;;;1.00;74.73
75425;BME280;64007;50.632;13.700;2023-02-26T11:24:43;98068.38;;;1.06;75.77
75425;BME280;64007;50.632;13.700;2023-02-26T11:27:14;98067.47;;;0.87;74.20
75425;BME280;64007;50.632;13.700;2023-02-26T11:29:43;98076.22;;;0.86;77.35
75425;BME280;64007;50.632;13.700;2023-02-26T11:32:17;98081.94;;;0.96;75.43
75425;BME280;64007;50.632;13.700;2023-02-26T11:34:47;98079.13;;;1.00;77.96
75425;BME280;64007;50.632;13.700;2023-02-26T11:37:24;98079.91;;;1.02;76.00
75425;BME280;64007;50.632;13.700;2023-02-26T11:39:59;98095.28;;;0.89;76.22
75425;BME280;64007;50.632;13.700;2023-02-26T11:42:28;98098.38;;;0.77;78.93
75425;BME280;64007;50.632;13.700;2023-02-26T11:44:56;98111.38;;;0.79;79.10
75425;BME280;64007;50.632;13.700;2023-02-26T11:47:25;98101.97;;;0.75;77.07
75425;BME280;64007;50.632;13.700;2023-02-26T11:49:54;98117.00;;;0.70;76.84
75425;BME280;64007;50.632;13.700;2023-02-26T11:52:29;98116.34;;;0.65;79.23
75425;BME280;64007;50.632;13.700;2023-02-26T11:55:05;98113.84;;;0.83;78.23
75425;BME280;64007;50.632;13.700;2023-02-26T11:57:41;98113.84;;;0.83;74.44
75425;BME280;64007;50.632;13.700;2023-02-26T12:00:18;98115.38;;;0.89;73.22
75425;BME280;64007;50.632;13.700;2023-02-26T12:02:44;98125.38;;;0.78;73.19
75425;BME280;64007;50.632;13.700;2023-02-26T12:05:15;98117.13;;;0.88;74.86
75425;BME280;64007;50.632;13.700;2023-02-26T12:07:41;98118.78;;;1.11;72.46
75425;BME280;64007;50.632;13.700;2023-02-26T12:10:16;98102.81;;;0.97;68.75
75425;BME280;64007;50.632;13.700;2023-02-26T12:26:02;98128.78;;;1.23;70.24
75425;BME280;64007;50.632;13.700;2023-02-26T12:31:27;98120.69;;;1.08;69.63
75425;BME280;64007;50.632;13.700;2023-02-26T12:54:10;98126.91;;;1.05;68.39
75425;BME280;64007;50.632;13.700;2023-02-26T13:02:17;98141.75;;;1.27;67.72
75425;BME280;64007;50.632;13.700;2023-02-26T13:05:11;98142.28;;;1.35;66.35
75425;BME280;64007;50.632;13.700;2023-02-26T13:16:44;98152.94;;;1.91;65.88
75425;BME280;64007;50.632;13.700;2023-02-26T13:19:29;98148.44;;;1.74;63.50
75425;BME280;64007;50.632;13.700;2023-02-26T13:22:11;98141.28;;;1.78;65.83
75425;BME280;64007;50.632;13.700;2023-02-26T13:24:43;98145.31;;;1.66;66.15
75425;BME280;64007;50.632;13.700;2023-02-26T13:27:11;98149.38;;;1.73;65.86
75425;BME280;64007;50.632;13.700;2023-02-26T13:29:44;98148.66;;;1.70;63.05
75425;BME280;64007;50.632;13.700;2023-02-26T13:32:18;98154.59;;;1.73;63.53
75425;BME280;64007;50.632;13.700;2023-02-26T13:37:26;98157.69;;;2.22;62.34
75425;BME280;64007;50.632;13.700;2023-02-26T13:53:33;98169.56;;;4.58;58.06
75425;BME280;64007;50.632;13.700;2023-02-26T13:58:37;98180.63;;;5.12;55.09
75425;BME280;64007;50.632;13.700;2023-02-26T14:08:55;98167.72;;;4.27;60.47
75425;BME280;64007;50.632;13.700;2023-02-26T14:11:41;98171.44;;;4.56;61.81
75425;BME280;64007;50.632;13.700;2023-02-26T14:16:52;98176.75;;;5.49;59.02
75425;BME280;64007;50.632;13.700;2023-02-26T14:21:52;98168.22;;;5.90;53.40
75425;BME280;64007;50.632;13.700;2023-02-26T14:24:22;98178.84;;;6.18;54.47
75425;BME280;64007;50.632;13.700;2023-02-26T14:27:05;98169.38;;;6.00;54.10
75425;BME280;64007;50.632;13.700;2023-02-26T14:34:58;98169.84;;;5.62;54.23
75425;BME280;64007;50.632;13.700;2023-02-26T14:37:25;98167.72;;;5.83;51.62
75425;BME280;64007;50.632;13.700;2023-02-26T14:40:02;98171.84;;;5.73;51.22
75425;BME280;64007;50.632;13.700;2023-02-26T14:42:41;98169.03;;;6.35;52.73
75425;BME280;64007;50.632;13.700;2023-02-26T14:45:12;98181.56;;;6.74;50.69
75425;BME280;64007;50.632;13.700;2023-02-26T14:47:46;98185.56;;;7.08;49.05
75425;BME280;64007;50.632;13.700;2023-02-26T14:50:21;98172.38;;;6.94;48.75
75425;BME280;64007;50.632;13.700;2023-02-26T15:07:33;98214.00;;;5.89;50.56
75425;BME280;64007;50.632;13.700;2023-02-26T15:10:40;98234.00;;;4.84;56.17
75425;BME280;64007;50.632;13.700;2023-02-26T15:13:22;98243.09;;;3.42;66.42
75425;BME280;64007;50.632;13.700;2023-02-26T15:15:58;98247.81;;;2.98;69.11
75425;BME280;64007;50.632;13.700;2023-02-26T15:23:48;98235.13;;;2.31;67.34
75425;BME280;64007;50.632;13.700;2023-02-26T15:26:22;98229.84;;;2.12;66.38
75425;BME280;64007;50.632;13.700;2023-02-26T15:28:50;98232.16;;;2.38;63.14
75425;BME280;64007;50.632;13.700;2023-02-26T15:31:19;98225.94;;;2.60;62.86
75425;BME280;64007;50.632;13.700;2023-02-26T15:33:49;98232.00;;;2.99;61.54
75425;BME280;64007;50.632;13.700;2023-02-26T15:36:18;98232.19;;;3.13;60.43
75425;BME280;64007;50.632;13.700;2023-02-26T15:38:48;98231.91;;;2.63;60.81
75425;BME280;64007;50.632;13.700;2023-02-26T15:41:15;98231.22;;;2.39;60.92
75425;BME280;64007;50.632;13.700;2023-02-26T15:43:56;98223.47;;;1.97;61.65
75425;BME280;64007;50.632;13.700;2023-02-26T15:46:31;98230.50;;;1.54;63.01
75425;BME280;64007;50.632;13.700;2023-02-26T15:49:01;98240.13;;;1.34;63.70
75425;BME280;64007;50.632;13.700;2023-02-26T15:51:29;98234.16;;;1.30;65.43
75425;BME280;64007;50.632;13.700;2023-02-26T15:53:55;98234.13;;;1.08;66.42
75425;BME280;64007;50.632;13.700;2023-02-26T15:56:34;98242.00;;;1.08;66.85
75425;BME280;64007;50.632;13.700;2023-02-26T15:59:15;98241.81;;;0.91;66.86
75425;BME280;64007;50.632;13.700;2023-02-26T16:01:42;98266.16;;;0.93;66.87
75425;BME280;64007;50.632;13.700;2023-02-26T16:04:13;98266.91;;;0.73;69.17
75425;BME280;64007;50.632;13.700;2023-02-26T16:06:42;98268.88;;;0.67;69.84